createdAt,value
2017-10-28T00:00:12.738Z,1016.28
2017-10-28T00:01:13.171Z,1016.27
2017-10-28T00:02:13.594Z,1016.29
2017-10-28T00:03:14.017Z,1016.28
2017-10-28T00:04:14.492Z,1016.30
2017-10-28T00:05:14.878Z,1016.32
2017-10-28T00:06:15.306Z,1016.26
2017-10-28T00:07:15.723Z,1016.22
2017-10-28T00:08:16.153Z,1016.23
2017-10-28T00:09:16.608Z,1016.18
2017-10-28T00:10:17.008Z,1016.15
2017-10-28T00:11:17.431Z,1016.15
2017-10-28T00:12:17.879Z,1016.16
2017-10-28T00:13:18.298Z,1016.14
2017-10-28T00:14:18.719Z,1016.19
2017-10-28T00:15:19.150Z,1016.15
2017-10-28T00:16:19.569Z,1016.15
2017-10-28T00:17:19.994Z,1016.17
2017-10-28T00:18:20.450Z,1016.19
2017-10-28T00:19:20.856Z,1016.19
2017-10-28T00:20:21.276Z,1016.13
2017-10-28T00:21:21.701Z,1016.15
2017-10-28T00:22:22.158Z,1016.13
2017-10-28T00:23:22.561Z,1016.10
2017-10-28T00:24:22.987Z,1016.15
2017-10-28T00:25:23.411Z,1016.12
2017-10-28T00:26:23.839Z,1016.18
2017-10-28T00:27:24.269Z,1016.05
2017-10-28T00:28:24.697Z,1016.09
2017-10-28T00:29:25.124Z,1016.04
2017-10-28T00:30:25.552Z,1016.03
2017-10-28T00:31:25.979Z,1015.98
2017-10-28T00:32:26.402Z,1015.95
2017-10-28T00:33:26.830Z,1015.93
2017-10-28T00:34:27.259Z,1015.89
2017-10-28T00:35:27.685Z,1015.90
2017-10-28T00:36:28.112Z,1015.79
2017-10-28T00:37:28.541Z,1015.80
2017-10-28T00:38:28.964Z,1015.74
2017-10-28T00:39:29.395Z,1015.73
2017-10-28T00:40:29.827Z,1015.61
2017-10-28T00:41:30.248Z,1015.56
2017-10-28T00:42:30.672Z,1015.52
2017-10-28T00:43:31.098Z,1015.48
2017-10-28T00:44:31.538Z,1015.47
2017-10-28T00:45:31.955Z,1015.41
2017-10-28T00:46:32.381Z,1015.43
2017-10-28T00:47:32.807Z,1015.47
2017-10-28T00:48:33.239Z,1015.38
2017-10-28T00:49:33.665Z,1015.39
2017-10-28T00:50:34.097Z,1015.41
2017-10-28T00:51:34.516Z,1015.34
2017-10-28T00:52:34.953Z,1015.34
2017-10-28T00:53:35.378Z,1015.29
2017-10-28T00:54:35.822Z,1015.29
2017-10-28T00:55:36.228Z,1015.25
2017-10-28T00:56:36.656Z,1015.27
2017-10-28T00:57:37.088Z,1015.26
2017-10-28T00:58:37.513Z,1015.19
2017-10-28T00:59:37.940Z,1015.24
2017-10-28T01:00:38.364Z,1015.25
2017-10-28T01:01:38.806Z,1015.25
2017-10-28T01:02:39.217Z,1015.21
2017-10-28T01:03:39.644Z,1015.20
2017-10-28T01:04:40.071Z,1015.23
2017-10-28T01:05:40.518Z,1015.21
2017-10-28T01:06:40.927Z,1015.07
2017-10-28T01:07:41.354Z,1015.15
2017-10-28T01:08:41.775Z,1015.18
2017-10-28T01:09:42.209Z,1015.14
2017-10-28T01:10:42.634Z,1015.17
2017-10-28T01:11:43.063Z,1015.15
2017-10-28T01:12:43.503Z,1015.08
2017-10-28T01:13:43.919Z,1015.09
2017-10-28T01:14:44.343Z,1015.08
2017-10-28T01:15:44.777Z,1015.09
2017-10-28T01:16:45.201Z,1015.02
2017-10-28T01:17:45.625Z,1015.02
2017-10-28T01:18:46.055Z,1015.01
2017-10-28T01:19:46.476Z,1015.03
2017-10-28T01:20:46.903Z,1014.97
2017-10-28T01:21:47.332Z,1014.96
2017-10-28T01:22:47.769Z,1014.97
2017-10-28T01:23:48.191Z,1014.97
2017-10-28T01:24:48.625Z,1014.91
2017-10-28T01:25:49.041Z,1014.96
2017-10-28T01:26:49.467Z,1014.90
2017-10-28T01:27:49.892Z,1014.90
2017-10-28T01:28:50.322Z,1014.79
2017-10-28T01:29:50.750Z,1014.84
2017-10-28T01:30:51.176Z,1014.86
2017-10-28T01:31:51.605Z,1014.83
2017-10-28T01:32:52.027Z,1014.80
2017-10-28T01:33:52.456Z,1014.81
2017-10-28T01:34:52.891Z,1014.78
2017-10-28T01:35:53.316Z,1014.81
2017-10-28T01:36:53.739Z,1014.77
2017-10-28T01:37:54.168Z,1014.71
2017-10-28T01:38:54.595Z,1014.68
2017-10-28T01:39:55.022Z,1014.61
2017-10-28T01:40:55.455Z,1014.63
2017-10-28T01:41:55.875Z,1014.68
2017-10-28T01:42:56.298Z,1014.55
2017-10-28T01:43:56.732Z,1014.59
2017-10-28T01:44:57.158Z,1014.58
2017-10-28T01:45:57.583Z,1014.60
2017-10-28T01:46:58.012Z,1014.55
2017-10-28T01:47:58.436Z,1014.49
2017-10-28T01:48:58.863Z,1014.52
2017-10-28T01:49:59.291Z,1014.32
2017-10-28T01:50:59.714Z,1014.31
2017-10-28T01:52:00.141Z,1014.38
2017-10-28T01:53:00.568Z,1014.34
2017-10-28T01:54:00.997Z,1014.38
2017-10-28T01:55:01.421Z,1014.31
2017-10-28T01:56:01.860Z,1014.31
2017-10-28T01:57:02.273Z,1014.28
2017-10-28T01:58:02.708Z,1014.31
2017-10-28T01:59:03.126Z,1014.35
2017-10-28T02:00:03.547Z,1014.33
2017-10-28T02:01:03.980Z,1014.32
2017-10-28T02:02:04.402Z,1014.32
2017-10-28T02:03:04.844Z,1014.35
2017-10-28T02:04:05.267Z,1014.35
2017-10-28T02:05:05.690Z,1014.39
2017-10-28T02:06:06.110Z,1014.35
2017-10-28T02:07:06.537Z,1014.33
2017-10-28T02:08:06.966Z,1014.29
2017-10-28T02:09:07.386Z,1014.35
2017-10-28T02:10:07.818Z,1014.30
2017-10-28T02:11:08.240Z,1014.29
2017-10-28T02:12:08.668Z,1014.27
2017-10-28T02:13:09.097Z,1014.29
2017-10-28T02:14:09.527Z,1014.22
2017-10-28T02:15:09.960Z,1014.17
2017-10-28T02:16:10.378Z,1014.19
2017-10-28T02:17:10.798Z,1014.12
2017-10-28T02:18:11.233Z,1014.12
2017-10-28T02:19:11.648Z,1014.08
2017-10-28T02:20:12.079Z,1014.01
2017-10-28T02:21:12.507Z,1014.00
2017-10-28T02:22:12.934Z,1013.96
2017-10-28T02:23:13.390Z,1014.04
2017-10-28T02:24:13.789Z,1013.92
2017-10-28T02:25:14.207Z,1013.88
2017-10-28T02:26:14.635Z,1013.90
2017-10-28T02:27:15.059Z,1013.89
2017-10-28T02:28:15.491Z,1013.86
2017-10-28T02:29:15.921Z,1013.85
2017-10-28T02:30:16.342Z,1013.76
2017-10-28T02:31:16.765Z,1013.79
2017-10-28T02:32:17.192Z,1013.76
2017-10-28T02:33:17.617Z,1013.75
2017-10-28T02:34:18.066Z,1013.77
2017-10-28T02:35:18.475Z,1013.76
2017-10-28T02:36:18.898Z,1013.63
2017-10-28T02:37:19.328Z,1013.59
2017-10-28T02:38:19.753Z,1013.64
2017-10-28T02:39:20.176Z,1013.54
2017-10-28T02:40:20.608Z,1013.64
2017-10-28T02:41:21.027Z,1013.63
2017-10-28T02:42:21.461Z,1013.61
2017-10-28T02:43:21.883Z,1013.63
2017-10-28T02:44:22.308Z,1013.56
2017-10-28T02:45:22.736Z,1013.56
2017-10-28T02:46:23.160Z,1013.60
2017-10-28T02:47:23.585Z,1013.57
2017-10-28T02:48:24.019Z,1013.43
2017-10-28T02:49:24.440Z,1013.49
2017-10-28T02:50:24.874Z,1013.53
2017-10-28T02:51:25.296Z,1013.41
2017-10-28T02:52:25.734Z,1013.43
2017-10-28T02:53:26.183Z,1013.46
2017-10-28T02:54:26.584Z,1013.44
2017-10-28T02:55:27.007Z,1013.41
2017-10-28T02:56:27.428Z,1013.46
2017-10-28T02:57:27.857Z,1013.35
2017-10-28T02:58:28.285Z,1013.42
2017-10-28T02:59:28.708Z,1013.34
2017-10-28T03:00:29.135Z,1013.25
2017-10-28T03:01:29.555Z,1013.21
2017-10-28T03:02:29.982Z,1013.20
2017-10-28T03:03:30.418Z,1013.24
2017-10-28T03:04:30.847Z,1013.21
2017-10-28T03:05:31.267Z,1013.21
2017-10-28T03:06:31.697Z,1013.20
2017-10-28T03:07:32.121Z,1013.30
2017-10-28T03:08:32.538Z,1013.12
2017-10-28T03:09:32.968Z,1013.13
2017-10-28T03:10:33.400Z,1013.16
2017-10-28T03:11:33.822Z,1013.10
2017-10-28T03:12:34.245Z,1012.97
2017-10-28T03:13:34.672Z,1013.01
2017-10-28T03:14:35.097Z,1013.05
2017-10-28T03:15:35.531Z,1013.04
2017-10-28T03:16:35.954Z,1013.04
2017-10-28T03:17:36.377Z,1013.08
2017-10-28T03:18:36.803Z,1013.02
2017-10-28T03:19:37.228Z,1013.11
2017-10-28T03:20:37.663Z,1013.04
2017-10-28T03:21:38.087Z,1012.98
2017-10-28T03:22:38.509Z,1013.03
2017-10-28T03:23:38.948Z,1013.03
2017-10-28T03:24:39.375Z,1013.08
2017-10-28T03:25:39.793Z,1013.09
2017-10-28T03:26:40.225Z,1013.02
2017-10-28T03:27:40.645Z,1012.96
2017-10-28T03:28:41.068Z,1012.88
2017-10-28T03:29:41.504Z,1012.92
2017-10-28T03:30:41.922Z,1012.96
2017-10-28T03:31:42.346Z,1012.89
2017-10-28T03:32:42.779Z,1012.87
2017-10-28T03:33:43.199Z,1012.94
2017-10-28T03:34:43.627Z,1012.88
2017-10-28T03:35:44.083Z,1012.95
2017-10-28T03:36:44.478Z,1013.01
2017-10-28T03:37:44.907Z,1012.92
2017-10-28T03:38:45.332Z,1012.89
2017-10-28T03:39:45.759Z,1012.90
2017-10-28T03:40:46.184Z,1012.86
2017-10-28T03:41:46.616Z,1012.81
2017-10-28T03:42:47.035Z,1012.82
2017-10-28T03:43:47.496Z,1012.83
2017-10-28T03:44:47.891Z,1012.85
2017-10-28T03:45:48.317Z,1012.74
2017-10-28T03:46:48.747Z,1012.77
2017-10-28T03:47:49.168Z,1012.74
2017-10-28T03:48:49.591Z,1012.74
2017-10-28T03:49:50.024Z,1012.66
2017-10-28T03:50:50.450Z,1012.62
2017-10-28T03:51:50.868Z,1012.70
2017-10-28T03:52:51.300Z,1012.59
2017-10-28T03:53:51.721Z,1012.57
2017-10-28T03:54:52.147Z,1012.71
2017-10-28T03:55:52.577Z,1012.70
2017-10-28T03:56:53.004Z,1012.66
2017-10-28T03:57:53.432Z,1012.66
2017-10-28T03:58:53.856Z,1012.72
2017-10-28T03:59:54.287Z,1012.65
2017-10-28T04:00:54.705Z,1012.70
2017-10-28T04:01:55.155Z,1012.69
2017-10-28T04:02:55.561Z,1012.73
2017-10-28T04:03:55.987Z,1012.65
2017-10-28T04:04:58.276Z,1012.65
2017-10-28T04:05:56.864Z,1012.62
2017-10-28T04:06:57.278Z,1012.65
2017-10-28T04:07:57.690Z,1012.63
2017-10-28T04:08:58.111Z,1012.52
2017-10-28T04:09:58.543Z,1012.48
2017-10-28T04:10:58.965Z,1012.46
2017-10-28T04:11:59.393Z,1012.44
2017-10-28T04:12:59.816Z,1012.48
2017-10-28T04:14:00.242Z,1012.40
2017-10-28T04:15:00.668Z,1012.47
2017-10-28T04:16:01.100Z,1012.53
2017-10-28T04:17:01.530Z,1012.48
2017-10-28T04:18:01.946Z,1012.50
2017-10-28T04:19:02.376Z,1012.48
2017-10-28T04:20:02.799Z,1012.45
2017-10-28T04:21:03.233Z,1012.45
2017-10-28T04:22:03.655Z,1012.43
2017-10-28T04:23:04.077Z,1012.39
2017-10-28T04:24:04.514Z,1012.42
2017-10-28T04:25:04.943Z,1012.32
2017-10-28T04:26:05.356Z,1012.31
2017-10-28T04:27:05.791Z,1012.30
2017-10-28T04:28:06.222Z,1012.29
2017-10-28T04:29:06.635Z,1012.24
2017-10-28T04:30:07.071Z,1012.28
2017-10-28T04:31:07.496Z,1012.26
2017-10-28T04:32:07.913Z,1012.21
2017-10-28T04:33:08.339Z,1012.07
2017-10-28T04:34:08.762Z,1012.15
2017-10-28T04:35:09.193Z,1012.11
2017-10-28T04:36:09.629Z,1012.09
2017-10-28T04:37:10.043Z,1012.07
2017-10-28T04:38:10.468Z,1012.04
2017-10-28T04:39:10.900Z,1012.09
2017-10-28T04:40:11.332Z,1011.96
2017-10-28T04:41:11.750Z,1011.99
2017-10-28T04:42:12.201Z,1011.94
2017-10-28T04:43:12.607Z,1011.91
2017-10-28T04:44:13.029Z,1011.91
2017-10-28T04:45:13.452Z,1011.90
2017-10-28T04:46:13.934Z,1011.85
2017-10-28T04:47:14.320Z,1011.84
2017-10-28T04:48:16.287Z,1011.88
2017-10-28T04:49:15.166Z,1011.78
2017-10-28T04:50:15.588Z,1011.77
2017-10-28T04:51:16.014Z,1011.80
2017-10-28T04:52:16.440Z,1011.81
2017-10-28T04:53:16.867Z,1011.74
2017-10-28T04:54:17.286Z,1011.75
2017-10-28T04:55:17.721Z,1011.68
2017-10-28T04:56:18.140Z,1011.68
2017-10-28T04:57:18.569Z,1011.61
2017-10-28T04:58:19.007Z,1011.62
2017-10-28T04:59:19.423Z,1011.58
2017-10-28T05:00:19.841Z,1011.53
2017-10-28T05:01:20.268Z,1011.53
2017-10-28T05:02:20.693Z,1011.47
2017-10-28T05:03:21.127Z,1011.47
2017-10-28T05:04:21.546Z,1011.43
2017-10-28T05:05:21.978Z,1011.39
2017-10-28T05:06:22.402Z,1011.30
2017-10-28T05:07:22.830Z,1011.45
2017-10-28T05:08:23.256Z,1011.32
2017-10-28T05:09:23.683Z,1011.38
2017-10-28T05:10:24.115Z,1011.35
2017-10-28T05:11:24.532Z,1011.40
2017-10-28T05:12:24.957Z,1011.31
2017-10-28T05:13:25.395Z,1011.35
2017-10-28T05:14:25.810Z,1011.22
2017-10-28T05:15:26.238Z,1011.21
2017-10-28T05:16:26.664Z,1011.16
2017-10-28T05:17:27.083Z,1011.13
2017-10-28T05:18:27.516Z,1011.10
2017-10-28T05:19:27.952Z,1011.02
2017-10-28T05:20:28.371Z,1011.01
2017-10-28T05:21:28.794Z,1011.02
2017-10-28T05:22:29.223Z,1011.02
2017-10-28T05:23:29.654Z,1010.93
2017-10-28T05:24:30.069Z,1010.95
2017-10-28T05:25:30.494Z,1010.98
2017-10-28T05:26:30.918Z,1010.90
2017-10-28T05:27:31.356Z,1010.83
2017-10-28T05:28:31.779Z,1010.89
2017-10-28T05:29:32.203Z,1010.88
2017-10-28T05:30:32.628Z,1010.87
2017-10-28T05:31:33.056Z,1010.92
2017-10-28T05:32:33.481Z,1010.97
2017-10-28T05:33:33.904Z,1010.93
2017-10-28T05:34:34.336Z,1010.88
2017-10-28T05:35:34.768Z,1010.88
2017-10-28T05:36:35.192Z,1010.86
2017-10-28T05:37:35.615Z,1010.85
2017-10-28T05:38:36.043Z,1010.87
2017-10-28T05:39:36.463Z,1010.85
2017-10-28T05:40:36.901Z,1010.83
2017-10-28T05:41:37.328Z,1010.80
2017-10-28T05:42:37.744Z,1010.84
2017-10-28T05:43:38.168Z,1010.87
2017-10-28T05:44:38.599Z,1010.86
2017-10-28T05:45:39.022Z,1010.84
2017-10-28T05:46:39.453Z,1010.84
2017-10-28T05:47:39.877Z,1010.87
2017-10-28T05:48:40.302Z,1010.80
2017-10-28T05:49:40.727Z,1010.74
2017-10-28T05:50:41.164Z,1010.69
2017-10-28T05:51:41.585Z,1010.68
2017-10-28T05:52:42.009Z,1010.59
2017-10-28T05:53:42.435Z,1010.64
2017-10-28T05:54:42.872Z,1010.69
2017-10-28T05:55:43.291Z,1010.70
2017-10-28T05:56:43.716Z,1010.65
2017-10-28T05:57:44.136Z,1010.63
2017-10-28T05:58:44.577Z,1010.62
2017-10-28T05:59:44.990Z,1010.61
2017-10-28T06:00:45.424Z,1010.48
2017-10-28T06:01:45.843Z,1010.42
2017-10-28T06:02:46.272Z,1010.42
2017-10-28T06:03:46.695Z,1010.38
2017-10-28T06:04:47.128Z,1010.36
2017-10-28T06:05:47.550Z,1010.32
2017-10-28T06:06:47.975Z,1010.31
2017-10-28T06:07:48.401Z,1010.40
2017-10-28T06:08:48.827Z,1010.43
2017-10-28T06:09:49.252Z,1010.32
2017-10-28T06:10:49.681Z,1010.39
2017-10-28T06:11:50.116Z,1010.37
2017-10-28T06:12:50.533Z,1010.42
2017-10-28T06:13:50.956Z,1010.16
2017-10-28T06:14:51.382Z,1010.21
2017-10-28T06:15:51.809Z,1010.22
2017-10-28T06:16:52.241Z,1010.20
2017-10-28T06:17:52.663Z,1010.19
2017-10-28T06:18:53.101Z,1010.34
2017-10-28T06:19:53.515Z,1010.27
2017-10-28T06:20:53.943Z,1010.38
2017-10-28T06:21:54.366Z,1010.26
2017-10-28T06:22:54.792Z,1010.35
2017-10-28T06:23:55.217Z,1010.45
2017-10-28T06:24:55.645Z,1010.49
2017-10-28T06:25:56.074Z,1010.47
2017-10-28T06:26:56.496Z,1010.41
2017-10-28T06:27:56.924Z,1010.41
2017-10-28T06:28:57.348Z,1010.35
2017-10-28T06:29:57.774Z,1010.36
2017-10-28T06:30:58.201Z,1010.41
2017-10-28T06:31:58.647Z,1010.25
2017-10-28T06:32:59.056Z,1010.33
2017-10-28T06:33:59.479Z,1010.37
2017-10-28T06:34:59.905Z,1010.42
2017-10-28T06:36:00.338Z,1010.48
2017-10-28T06:37:00.758Z,1010.34
2017-10-28T06:38:01.196Z,1010.54
2017-10-28T06:39:01.613Z,1010.50
2017-10-28T06:40:02.039Z,1010.37
2017-10-28T06:41:02.464Z,1010.39
2017-10-28T06:42:02.905Z,1010.24
2017-10-28T06:43:03.319Z,1010.27
2017-10-28T06:44:03.742Z,1010.13
2017-10-28T06:45:04.169Z,1010.18
2017-10-28T06:46:04.600Z,1010.07
2017-10-28T06:47:05.026Z,1009.93
2017-10-28T06:48:05.447Z,1009.92
2017-10-28T06:49:05.885Z,1009.92
2017-10-28T06:50:06.299Z,1009.85
2017-10-28T06:51:06.724Z,1009.84
2017-10-28T06:52:07.160Z,1009.82
2017-10-28T06:53:07.578Z,1009.70
2017-10-28T06:54:08.008Z,1009.73
2017-10-28T06:55:08.432Z,1009.72
2017-10-28T06:56:08.864Z,1009.65
2017-10-28T06:57:09.285Z,1009.64
2017-10-28T06:58:09.722Z,1009.68
2017-10-28T06:59:10.142Z,1009.67
2017-10-28T07:00:10.583Z,1009.79
2017-10-28T07:01:10.991Z,1009.90
2017-10-28T07:02:11.427Z,1009.79
2017-10-28T07:03:11.846Z,1009.74
2017-10-28T07:04:12.278Z,1009.77
2017-10-28T07:05:12.701Z,1009.72
2017-10-28T07:06:13.129Z,1009.69
2017-10-28T07:07:13.548Z,1009.72
2017-10-28T07:08:13.983Z,1009.81
2017-10-28T07:09:14.412Z,1009.81
2017-10-28T07:10:14.831Z,1009.77
2017-10-28T07:11:15.256Z,1009.76
2017-10-28T07:12:15.701Z,1009.75
2017-10-28T07:13:16.113Z,1009.66
2017-10-28T07:14:16.535Z,1009.67
2017-10-28T07:15:16.967Z,1009.75
2017-10-28T07:16:17.394Z,1009.63
2017-10-28T07:17:17.815Z,1009.77
2017-10-28T07:18:18.240Z,1009.63
2017-10-28T07:19:18.669Z,1009.64
2017-10-28T07:20:19.109Z,1009.70
2017-10-28T07:21:19.522Z,1009.70
2017-10-28T07:22:19.946Z,1009.57
2017-10-28T07:23:20.376Z,1009.61
2017-10-28T07:24:20.802Z,1009.58
2017-10-28T07:25:21.229Z,1009.57
2017-10-28T07:26:21.659Z,1009.41
2017-10-28T07:27:22.085Z,1009.43
2017-10-28T07:28:22.508Z,1009.38
2017-10-28T07:29:22.939Z,1009.42
2017-10-28T07:30:23.362Z,1009.45
2017-10-28T07:31:23.790Z,1009.41
2017-10-28T07:32:24.225Z,1009.49
2017-10-28T07:33:24.643Z,1009.54
2017-10-28T07:34:25.077Z,1009.47
2017-10-28T07:35:25.498Z,1009.40
2017-10-28T07:36:25.924Z,1009.50
2017-10-28T07:37:26.350Z,1009.40
2017-10-28T07:38:28.324Z,1009.34
2017-10-28T07:39:27.207Z,1009.38
2017-10-28T07:40:27.630Z,1009.31
2017-10-28T07:41:28.059Z,1009.25
2017-10-28T07:42:28.482Z,1009.35
2017-10-28T07:43:28.909Z,1009.28
2017-10-28T07:44:29.338Z,1009.26
2017-10-28T07:45:29.765Z,1009.26
2017-10-28T07:46:30.205Z,1009.29
2017-10-28T07:47:30.627Z,1009.09
2017-10-28T07:48:31.046Z,1009.20
2017-10-28T07:49:31.472Z,1009.23
2017-10-28T07:50:31.902Z,1009.16
2017-10-28T07:51:32.335Z,1009.13
2017-10-28T07:52:32.751Z,1009.17
2017-10-28T07:53:33.180Z,1009.05
2017-10-28T07:54:33.604Z,1008.99
2017-10-28T07:55:34.036Z,1008.99
2017-10-28T07:56:34.458Z,1009.06
2017-10-28T07:57:34.886Z,1009.02
2017-10-28T07:58:35.352Z,1008.85
2017-10-28T07:59:35.744Z,1008.82
2017-10-28T08:00:36.183Z,1008.89
2017-10-28T08:01:36.598Z,1008.89
2017-10-28T08:02:37.023Z,1008.74
2017-10-28T08:03:37.450Z,1008.81
2017-10-28T08:04:37.876Z,1008.91
2017-10-28T08:05:38.300Z,1008.78
2017-10-28T08:06:38.732Z,1008.82
2017-10-28T08:07:39.153Z,1008.68
2017-10-28T08:08:39.592Z,1008.66
2017-10-28T08:09:40.008Z,1008.72
2017-10-28T08:10:40.436Z,1008.72
2017-10-28T08:11:40.862Z,1008.82
2017-10-28T08:12:41.296Z,1008.72
2017-10-28T08:13:41.713Z,1008.71
2017-10-28T08:14:42.168Z,1008.71
2017-10-28T08:15:42.571Z,1008.74
2017-10-28T08:16:42.998Z,1008.72
2017-10-28T08:17:43.429Z,1008.67
2017-10-28T08:18:43.851Z,1008.57
2017-10-28T08:19:44.298Z,1008.80
2017-10-28T08:20:44.729Z,1008.70
2017-10-28T08:21:45.148Z,1008.82
2017-10-28T08:22:45.580Z,1008.84
2017-10-28T08:23:46.002Z,1008.84
2017-10-28T08:24:46.429Z,1008.92
2017-10-28T08:25:46.856Z,1008.85
2017-10-28T08:26:47.284Z,1008.85
2017-10-28T08:27:47.708Z,1008.83
2017-10-28T08:28:48.148Z,1008.68
2017-10-28T08:29:48.569Z,1008.81
2017-10-28T08:30:48.989Z,1008.64
2017-10-28T08:31:49.417Z,1008.62
2017-10-28T08:32:49.847Z,1008.47
2017-10-28T08:33:50.266Z,1008.52
2017-10-28T08:34:50.698Z,1008.37
2017-10-28T08:35:51.123Z,1008.35
2017-10-28T08:36:51.556Z,1008.36
2017-10-28T08:37:52.001Z,1008.34
2017-10-28T08:38:52.426Z,1008.46
2017-10-28T08:39:52.855Z,1008.48
2017-10-28T08:40:53.258Z,1008.40
2017-10-28T08:41:53.687Z,1008.39
2017-10-28T08:42:54.101Z,1008.30
2017-10-28T08:43:54.530Z,1008.26
2017-10-28T08:44:54.973Z,1008.27
2017-10-28T08:45:55.398Z,1008.33
2017-10-28T08:46:55.822Z,1008.33
2017-10-28T08:47:56.255Z,1008.31
2017-10-28T08:48:56.683Z,1008.31
2017-10-28T08:49:57.089Z,1008.34
2017-10-28T08:50:57.546Z,1008.25
2017-10-28T08:51:57.962Z,1008.27
2017-10-28T08:52:58.375Z,1008.23
2017-10-28T08:53:58.831Z,1008.20
2017-10-28T08:54:59.244Z,1008.14
2017-10-28T08:55:59.735Z,1008.11
2017-10-28T08:57:00.095Z,1008.12
2017-10-28T08:58:00.507Z,1008.07
2017-10-28T08:59:00.955Z,1008.06
2017-10-28T09:00:01.379Z,1008.01
2017-10-28T09:01:01.788Z,1008.04
2017-10-28T09:02:02.219Z,1008.05
2017-10-28T09:03:02.726Z,1008.06
2017-10-28T09:04:03.074Z,1008.11
2017-10-28T09:05:03.512Z,1007.86
2017-10-28T09:06:03.940Z,1007.89
2017-10-28T09:07:04.381Z,1007.81
2017-10-28T09:08:04.782Z,1007.75
2017-10-28T09:09:05.209Z,1007.66
2017-10-28T09:10:05.634Z,1007.68
2017-10-28T09:11:06.087Z,1007.63
2017-10-28T09:12:06.508Z,1007.50
2017-10-28T09:13:06.950Z,1007.60
2017-10-28T09:14:07.367Z,1007.66
2017-10-28T09:15:07.785Z,1007.67
2017-10-28T09:16:08.200Z,1007.66
2017-10-28T09:17:08.626Z,1007.67
2017-10-28T09:18:09.056Z,1007.61
2017-10-28T09:19:09.486Z,1007.57
2017-10-28T09:20:09.908Z,1007.47
2017-10-28T09:21:10.325Z,1007.49
2017-10-28T09:22:10.763Z,1007.43
2017-10-28T09:23:11.191Z,1007.41
2017-10-28T09:24:11.616Z,1007.33
2017-10-28T09:25:12.042Z,1007.30
2017-10-28T09:26:12.469Z,1007.40
2017-10-28T09:27:12.910Z,1007.22
2017-10-28T09:28:13.324Z,1007.37
2017-10-28T09:29:13.752Z,1007.34
2017-10-28T09:30:14.193Z,1007.28
2017-10-28T09:31:14.618Z,1007.21
2017-10-28T09:32:15.065Z,1007.31
2017-10-28T09:33:15.470Z,1007.32
2017-10-28T09:34:15.892Z,1007.31
2017-10-28T09:35:16.324Z,1007.47
2017-10-28T09:36:16.759Z,1007.32
2017-10-28T09:37:17.192Z,1007.33
2017-10-28T09:38:17.604Z,1007.25
2017-10-28T09:39:18.027Z,1007.24
2017-10-28T09:40:18.462Z,1007.23
2017-10-28T09:41:18.912Z,1007.19
2017-10-28T09:42:19.337Z,1007.23
2017-10-28T09:43:19.736Z,1007.17
2017-10-28T09:44:20.168Z,1007.24
2017-10-28T09:45:20.598Z,1007.11
2017-10-28T09:46:21.024Z,1007.07
2017-10-28T09:47:21.451Z,1007.02
2017-10-28T09:48:21.881Z,1007.06
2017-10-28T09:49:22.309Z,1007.10
2017-10-28T09:50:22.750Z,1007.04
2017-10-28T09:51:23.182Z,1006.97
2017-10-28T09:52:23.587Z,1006.98
2017-10-28T09:53:24.014Z,1006.81
2017-10-28T09:54:24.445Z,1006.86
2017-10-28T09:55:24.876Z,1006.78
2017-10-28T09:56:25.300Z,1006.72
2017-10-28T09:57:25.733Z,1006.75
2017-10-28T09:58:26.164Z,1006.91
2017-10-28T09:59:26.581Z,1006.85
2017-10-28T10:00:27.026Z,1006.83
2017-10-28T10:01:27.446Z,1006.82
2017-10-28T10:02:27.867Z,1006.81
2017-10-28T10:03:28.293Z,1006.94
2017-10-28T10:04:28.725Z,1006.95
2017-10-28T10:05:29.146Z,1006.95
2017-10-28T10:06:29.572Z,1006.83
2017-10-28T10:07:30.001Z,1006.79
2017-10-28T10:08:30.430Z,1006.81
2017-10-28T10:09:30.859Z,1006.73
2017-10-28T10:10:31.286Z,1006.86
2017-10-28T10:11:31.713Z,1006.74
2017-10-28T10:12:32.151Z,1006.83
2017-10-28T10:13:32.571Z,1006.77
2017-10-28T10:14:32.999Z,1006.76
2017-10-28T10:15:33.445Z,1006.71
2017-10-28T10:16:33.854Z,1006.84
2017-10-28T10:17:34.291Z,1006.74
2017-10-28T10:18:34.708Z,1006.86
2017-10-28T10:19:35.156Z,1006.89
2017-10-28T10:20:35.572Z,1006.72
2017-10-28T10:21:35.990Z,1006.83
2017-10-28T10:22:36.421Z,1006.69
2017-10-28T10:23:36.851Z,1006.65
2017-10-28T10:24:37.283Z,1006.59
2017-10-28T10:25:37.703Z,1006.55
2017-10-28T10:26:38.130Z,1006.49
2017-10-28T10:27:38.556Z,1006.51
2017-10-28T10:28:38.992Z,1006.45
2017-10-28T10:29:39.448Z,1006.50
2017-10-28T10:30:39.841Z,1006.28
2017-10-28T10:31:40.267Z,1006.53
2017-10-28T10:32:40.697Z,1006.48
2017-10-28T10:33:41.129Z,1006.37
2017-10-28T10:34:41.551Z,1006.37
2017-10-28T10:35:41.991Z,1006.37
2017-10-28T10:36:42.405Z,1006.40
2017-10-28T10:37:42.833Z,1006.33
2017-10-28T10:38:43.262Z,1006.26
2017-10-28T10:39:43.689Z,1006.35
2017-10-28T10:40:44.119Z,1006.23
2017-10-28T10:41:44.544Z,1006.20
2017-10-28T10:42:44.976Z,1006.25
2017-10-28T10:43:45.397Z,1006.16
2017-10-28T10:44:45.839Z,1006.16
2017-10-28T10:45:46.255Z,1006.11
2017-10-28T10:46:46.685Z,1006.15
2017-10-28T10:47:47.111Z,1006.11
2017-10-28T10:48:47.553Z,1006.11
2017-10-28T10:49:47.968Z,1006.09
2017-10-28T10:50:48.398Z,1005.91
2017-10-28T10:51:48.824Z,1006.09
2017-10-28T10:52:49.255Z,1005.87
2017-10-28T10:53:49.683Z,1006.04
2017-10-28T10:54:50.106Z,1006.06
2017-10-28T10:55:50.534Z,1005.95
2017-10-28T10:56:51.881Z,1005.85
2017-10-28T10:57:51.403Z,1005.80
2017-10-28T10:58:51.818Z,1005.85
2017-10-28T10:59:53.892Z,1005.82
2017-10-28T11:00:52.677Z,1005.90
2017-10-28T11:01:53.102Z,1005.82
2017-10-28T11:02:53.558Z,1005.73
2017-10-28T11:03:53.961Z,1005.72
2017-10-28T11:04:55.384Z,1005.74
2017-10-28T11:05:54.819Z,1005.83
2017-10-28T11:06:55.252Z,1005.64
2017-10-28T11:07:55.672Z,1005.68
2017-10-28T11:08:56.106Z,1005.63
2017-10-28T11:09:56.532Z,1005.64
2017-10-28T11:10:56.962Z,1005.61
2017-10-28T11:11:57.391Z,1005.59
2017-10-28T11:12:57.822Z,1005.60
2017-10-28T11:13:58.252Z,1005.60
2017-10-28T11:14:58.678Z,1005.55
2017-10-28T11:15:59.103Z,1005.52
2017-10-28T11:16:59.534Z,1005.54
2017-10-28T11:17:59.962Z,1005.50
2017-10-28T11:19:00.394Z,1005.58
2017-10-28T11:20:00.821Z,1005.40
2017-10-28T11:21:01.254Z,1005.42
2017-10-28T11:22:01.678Z,1005.29
2017-10-28T11:23:02.111Z,1005.37
2017-10-28T11:24:02.534Z,1005.47
2017-10-28T11:25:02.959Z,1005.44
2017-10-28T11:26:03.389Z,1005.42
2017-10-28T11:27:03.817Z,1005.37
2017-10-28T11:28:04.244Z,1005.36
2017-10-28T11:29:04.672Z,1005.40
2017-10-28T11:30:05.101Z,1005.42
2017-10-28T11:31:05.537Z,1005.43
2017-10-28T11:32:05.955Z,1005.46
2017-10-28T11:33:06.393Z,1005.45
2017-10-28T11:34:06.814Z,1005.23
2017-10-28T11:35:07.251Z,1005.40
2017-10-28T11:36:07.674Z,1005.39
2017-10-28T11:37:08.103Z,1005.31
2017-10-28T11:38:08.525Z,1005.11
2017-10-28T11:39:08.959Z,1005.24
2017-10-28T11:40:09.388Z,1005.27
2017-10-28T11:41:09.809Z,1005.39
2017-10-28T11:42:10.245Z,1005.28
2017-10-28T11:43:10.667Z,1005.27
2017-10-28T11:44:11.090Z,1005.13
2017-10-28T11:45:11.522Z,1005.18
2017-10-28T11:46:11.951Z,1005.18
2017-10-28T11:47:12.378Z,1005.02
2017-10-28T11:48:12.810Z,1005.00
2017-10-28T11:49:13.237Z,1005.04
2017-10-28T11:50:13.664Z,1005.07
2017-10-28T11:51:14.098Z,1004.96
2017-10-28T11:52:14.529Z,1005.04
2017-10-28T11:53:14.955Z,1005.01
2017-10-28T11:54:15.381Z,1004.99
2017-10-28T11:55:15.808Z,1005.01
2017-10-28T11:56:16.247Z,1004.92
2017-10-28T11:57:16.666Z,1004.92
2017-10-28T11:58:17.094Z,1005.00
2017-10-28T11:59:17.518Z,1004.84
2017-10-28T12:00:17.947Z,1004.89
2017-10-28T12:01:18.375Z,1004.85
2017-10-28T12:02:18.816Z,1004.85
2017-10-28T12:03:19.236Z,1004.74
2017-10-28T12:04:19.663Z,1004.67
2017-10-28T12:05:20.091Z,1004.76
2017-10-28T12:06:20.528Z,1004.70
2017-10-28T12:07:20.947Z,1004.73
2017-10-28T12:08:21.375Z,1004.65
2017-10-28T12:09:21.803Z,1004.62
2017-10-28T12:10:22.231Z,1004.46